55.2°F
Current conditions from King Hill
Updated every 5 minutes
 
  Saturday October 25, 2014

Station Historical Data
Daily Summary for April 12, 2012 Units:  Both    English   Metric
« Previous Day
Next Day »
Daily Weekly Monthly Yearly Custom
  High: Low: Average:
Temperature: 54.4 °F /  12.4 °C 35.5 °F /  1.9 °C 41.8 °F /  5.4 °C
Dew Point: 37.0 °F /  2.8 °C 30.3 °F /  -0.9 °C 33.3 °F /  0.7 °C
Humidity: 89% 47% 73%
Wind Speed: 11.0mph /  17.7km/h - 3.3mph /  5.3km/h
Wind Gust: 18.0mph /  29km/h - -
Wind- - WSW
Pressure: 30.07 in /  1018.2 hPa 29.92 in /  1013.1 hPa -
Precipitation: 0.01 in /  0.3 mm    
Historical Graphs
 
 
Tabular Data for April 12, 2012
Time Temperature Dew Point Pressure Wind Wind Speed Wind Gust Humidity Daily Rainfall
00:00 38.8 °F /  3.8 °C 34.4 °F /  1.3 °C 29.92in /  1013.1hPa Calm   4.0mph /  6.4km/h 84% 0.04in /  1mm
00:05 38.7 °F /  3.7 °C 34.3 °F /  1.3 °C 29.92in /  1013.1hPa Calm   4.0mph /  6.4km/h 84% 0.00in /  0mm
00:15 38.4 °F /  3.6 °C 34.0 °F /  1.1 °C 29.92in /  1013.1hPa Calm     84% 0.00in /  0mm
00:20 38.4 °F /  3.6 °C 34.3 °F /  1.3 °C 29.92in /  1013.1hPa Calm     85% 0.00in /  0mm
00:30 38.3 °F /  3.5 °C 34.2 °F /  1.2 °C 29.93in /  1013.4hPa Calm     85% 0.00in /  0mm
00:35 38.4 °F /  3.6 °C 34.3 °F /  1.3 °C 29.93in /  1013.4hPa Calm     85% 0.00in /  0mm
00:45 38.6 °F /  3.7 °C 34.5 °F /  1.4 °C 29.92in /  1013.1hPa Calm     85% 0.00in /  0mm
00:50 38.4 °F /  3.6 °C 34.3 °F /  1.3 °C 29.93in /  1013.4hPa Calm   1.0mph /  1.6km/h 85% 0.00in /  0mm
01:00 38.2 °F /  3.4 °C 34.1 °F /  1.2 °C 29.93in /  1013.4hPa Calm     85% 0.00in /  0mm
01:05 38.0 °F /  3.3 °C 33.9 °F /  1.1 °C 29.93in /  1013.4hPa Calm     85% 0.00in /  0mm
01:10 37.7 °F /  3.2 °C 33.6 °F /  0.9 °C 29.93in /  1013.4hPa Calm     85% 0.00in /  0mm
01:15 37.5 °F /  3.1 °C 33.4 °F /  0.8 °C 29.93in /  1013.4hPa Calm     85% 0.00in /  0mm
01:20 37.4 °F /  3 °C 33.6 °F /  0.9 °C 29.93in /  1013.4hPa Calm     86% 0.00in /  0mm
01:25 37.4 °F /  3 °C 33.6 °F /  0.9 °C 29.93in /  1013.4hPa Calm     86% 0.00in /  0mm
01:30 37.1 °F /  2.8 °C 33.0 °F /  0.6 °C 29.93in /  1013.4hPa Calm     85% 0.00in /  0mm
01:35 36.9 °F /  2.7 °C 33.1 °F /  0.6 °C 29.93in /  1013.4hPa Calm     86% 0.00in /  0mm
01:40 36.8 °F /  2.7 °C 33.0 °F /  0.6 °C 29.93in /  1013.4hPa Calm     86% 0.00in /  0mm
01:50 36.9 °F /  2.7 °C 33.1 °F /  0.6 °C 29.93in /  1013.4hPa Calm     86% 0.00in /  0mm
01:55 36.9 °F /  2.7 °C 33.1 °F /  0.6 °C 29.93in /  1013.4hPa Calm     86% 0.00in /  0mm
02:05 36.7 °F /  2.6 °C 32.9 °F /  0.5 °C 29.93in /  1013.4hPa Calm   2.0mph /  3.2km/h 86% 0.00in /  0mm
02:10 36.7 °F /  2.6 °C 32.9 °F /  0.5 °C 29.93in /  1013.4hPa Calm   2.0mph /  3.2km/h 86% 0.00in /  0mm
02:15 36.6 °F /  2.6 °C 32.8 °F /  0.4 °C 29.93in /  1013.4hPa Calm     86% 0.00in /  0mm
02:20 36.5 °F /  2.5 °C 32.7 °F /  0.4 °C 29.93in /  1013.4hPa Calm     86% 0.00in /  0mm
02:25 36.4 °F /  2.4 °C 32.6 °F /  0.3 °C 29.93in /  1013.4hPa Calm     86% 0.00in /  0mm
02:30 36.2 °F /  2.3 °C 32.4 °F /  0.2 °C 29.93in /  1013.4hPa Calm     86% 0.00in /  0mm
02:35 36.3 °F /  2.4 °C 32.5 °F /  0.3 °C 29.93in /  1013.4hPa Calm     86% 0.00in /  0mm
02:45 36.4 °F /  2.4 °C 32.6 °F /  0.3 °C 29.93in /  1013.4hPa Calm     86% 0.00in /  0mm
02:50 36.4 °F /  2.4 °C 32.6 °F /  0.3 °C 29.93in /  1013.4hPa Calm     86% 0.00in /  0mm
02:55 36.5 °F /  2.5 °C 32.7 °F /  0.4 °C 29.93in /  1013.4hPa Calm     86% 0.00in /  0mm
03:00 36.5 °F /  2.5 °C 32.7 °F /  0.4 °C 29.93in /  1013.4hPa Calm     86% 0.00in /  0mm
03:05 36.6 °F /  2.6 °C 32.8 °F /  0.4 °C 29.93in /  1013.4hPa Calm     86% 0.00in /  0mm
03:10 36.5 °F /  2.5 °C 32.7 °F /  0.4 °C 29.93in /  1013.4hPa Calm     86% 0.00in /  0mm
03:15 36.4 °F /  2.4 °C 32.6 °F /  0.3 °C 29.93in /  1013.4hPa Calm   3.0mph /  4.8km/h 86% 0.00in /  0mm
03:20 36.4 °F /  2.4 °C 32.6 °F /  0.3 °C 29.93in /  1013.4hPa Calm   3.0mph /  4.8km/h 86% 0.00in /  0mm
03:25 36.2 °F /  2.3 °C 32.4 °F /  0.2 °C 29.93in /  1013.4hPa Calm   1.0mph /  1.6km/h 86% 0.00in /  0mm
03:30 36.1 °F /  2.3 °C 32.6 °F /  0.3 °C 29.93in /  1013.4hPa Calm     87% 0.00in /  0mm
03:40 35.7 °F /  2.1 °C 31.9 °F /  -0.1 °C 29.93in /  1013.4hPa Calm     86% 0.00in /  0mm
03:45 35.5 °F /  1.9 °C 32.0 °F /  0 °C 29.93in /  1013.4hPa Calm   1.0mph /  1.6km/h 87% 0.00in /  0mm
03:50 35.8 °F /  2.1 °C 32.3 °F /  0.2 °C 29.93in /  1013.4hPa Calm   4.0mph /  6.4km/h 87% 0.00in /  0mm
03:54 35.9 °F /  2.2 °C 32.7 °F /  0.4 °C 29.93in /  1013.4hPa Calm   4.0mph /  6.4km/h 88% 0.00in /  0mm
04:00 36.0 °F /  2.2 °C 32.8 °F /  0.4 °C 29.93in /  1013.4hPa Calm     88% 0.00in /  0mm
04:05 36.2 °F /  2.3 °C 33.0 °F /  0.6 °C 29.93in /  1013.4hPa Calm   3.0mph /  4.8km/h 88% 0.00in /  0mm
04:10 36.4 °F /  2.4 °C 33.2 °F /  0.7 °C 29.94in /  1013.8hPa Calm   3.0mph /  4.8km/h 88% 0.00in /  0mm
04:15 36.5 °F /  2.5 °C 33.3 °F /  0.7 °C 29.94in /  1013.8hPa Calm   2.0mph /  3.2km/h 88% 0.00in /  0mm
04:20 36.6 °F /  2.6 °C 33.4 °F /  0.8 °C 29.94in /  1013.8hPa Calm   2.0mph /  3.2km/h 88% 0.00in /  0mm
04:25 36.6 °F /  2.6 °C 33.4 °F /  0.8 °C 29.94in /  1013.8hPa Calm     88% 0.00in /  0mm
04:30 36.5 °F /  2.5 °C 33.3 °F /  0.7 °C 29.94in /  1013.8hPa Calm     88% 0.00in /  0mm
04:40 36.4 °F /  2.4 °C 33.5 °F /  0.8 °C 29.94in /  1013.8hPa Calm     89% 0.00in /  0mm
04:50 36.6 °F /  2.6 °C 33.7 °F /  0.9 °C 29.95in /  1014.1hPa Calm     89% 0.00in /  0mm
04:55 36.6 °F /  2.6 °C 33.7 °F /  0.9 °C 29.95in /  1014.1hPa Calm   4.0mph /  6.4km/h 89% 0.00in /  0mm
05:00 36.5 °F /  2.5 °C 33.6 °F /  0.9 °C 29.95in /  1014.1hPa Calm   4.0mph /  6.4km/h 89% 0.00in /  0mm
05:05 36.5 °F /  2.5 °C 33.6 °F /  0.9 °C 29.95in /  1014.1hPa Calm     89% 0.00in /  0mm
05:10 36.5 °F /  2.5 °C 33.6 °F /  0.9 °C 29.95in /  1014.1hPa Calm     89% 0.00in /  0mm
05:14 36.4 °F /  2.4 °C 33.5 °F /  0.8 °C 29.95in /  1014.1hPa Calm     89% 0.00in /  0mm
05:20 36.5 °F /  2.5 °C 33.6 °F /  0.9 °C 29.96in /  1014.4hPa NNE 1.0mph /  1.6km/h 5.0mph /  8km/h 89% 0.00in /  0mm
05:25 36.5 °F /  2.5 °C 33.6 °F /  0.9 °C 29.96in /  1014.4hPa NNE 1.0mph /  1.6km/h 5.0mph /  8km/h 89% 0.00in /  0mm
05:29 36.5 °F /  2.5 °C 33.6 °F /  0.9 °C 29.96in /  1014.4hPa Calm   5.0mph /  8km/h 89% 0.00in /  0mm
05:35 36.6 °F /  2.6 °C 33.4 °F /  0.8 °C 29.96in /  1014.4hPa Calm   4.0mph /  6.4km/h 88% 0.00in /  0mm
05:45 36.5 °F /  2.5 °C 33.3 °F /  0.7 °C 29.96in /  1014.4hPa NNE 1.0mph /  1.6km/h 6.0mph /  9.7km/h 88% 0.00in /  0mm
05:49 36.5 °F /  2.5 °C 33.3 °F /  0.7 °C 29.96in /  1014.4hPa Calm   5.0mph /  8km/h 88% 0.00in /  0mm
05:55 36.5 °F /  2.5 °C 33.3 °F /  0.7 °C 29.97in /  1014.8hPa NE 1.0mph /  1.6km/h 5.0mph /  8km/h 88% 0.00in /  0mm
06:05 36.4 °F /  2.4 °C 33.2 °F /  0.7 °C 29.97in /  1014.8hPa North 1.0mph /  1.6km/h 6.0mph /  9.7km/h 88% 0.00in /  0mm
06:10 36.4 °F /  2.4 °C 32.9 °F /  0.5 °C 29.97in /  1014.8hPa NNE 1.0mph /  1.6km/h 4.0mph /  6.4km/h 87% 0.00in /  0mm
06:15 36.3 °F /  2.4 °C 32.8 °F /  0.4 °C 29.97in /  1014.8hPa Calm   4.0mph /  6.4km/h 87% 0.00in /  0mm
06:20 36.2 °F /  2.3 °C 32.7 °F /  0.4 °C 29.97in /  1014.8hPa NNE 1.0mph /  1.6km/h 4.0mph /  6.4km/h 87% 0.00in /  0mm
06:25 36.2 °F /  2.3 °C 32.7 °F /  0.4 °C 29.98in /  1015.1hPa Calm   4.0mph /  6.4km/h 87% 0.00in /  0mm
06:30 36.2 °F /  2.3 °C 33.0 °F /  0.6 °C 29.98in /  1015.1hPa Calm   3.0mph /  4.8km/h 88% 0.00in /  0mm
06:35 36.2 °F /  2.3 °C 33.0 °F /  0.6 °C 29.98in /  1015.1hPa Calm   3.0mph /  4.8km/h 88% 0.00in /  0mm
06:45 36.1 °F /  2.3 °C 32.9 °F /  0.5 °C 29.98in /  1015.1hPa Calm   2.0mph /  3.2km/h 88% 0.00in /  0mm
06:55 36.2 °F /  2.3 °C 33.0 °F /  0.6 °C 29.99in /  1015.5hPa Calm   2.0mph /  3.2km/h 88% 0.00in /  0mm
06:59 36.1 °F /  2.3 °C 32.9 °F /  0.5 °C 29.99in /  1015.5hPa Calm   3.0mph /  4.8km/h 88% 0.00in /  0mm
07:05 36.2 °F /  2.3 °C 33.0 °F /  0.6 °C 29.99in /  1015.5hPa Calm   3.0mph /  4.8km/h 88% 0.00in /  0mm
07:09 36.3 °F /  2.4 °C 32.8 °F /  0.4 °C 29.99in /  1015.5hPa North 1.0mph /  1.6km/h 5.0mph /  8km/h 87% 0.00in /  0mm
07:15 36.4 °F /  2.4 °C 32.9 °F /  0.5 °C 30.00in /  1015.8hPa Calm   5.0mph /  8km/h 87% 0.00in /  0mm
07:20 36.5 °F /  2.5 °C 33.0 °F /  0.6 °C 30.00in /  1015.8hPa Calm   3.0mph /  4.8km/h 87% 0.00in /  0mm
07:25 36.6 °F /  2.6 °C 32.8 °F /  0.4 °C 30.00in /  1015.8hPa North 1.0mph /  1.6km/h 3.0mph /  4.8km/h 86% 0.00in /  0mm
07:29 36.9 °F /  2.7 °C 33.1 °F /  0.6 °C 30.00in /  1015.8hPa Calm   3.0mph /  4.8km/h 86% 0.00in /  0mm
07:35 37.1 °F /  2.8 °C 33.0 °F /  0.6 °C 30.00in /  1015.8hPa North 1.0mph /  1.6km/h 4.0mph /  6.4km/h 85% 0.00in /  0mm
07:45 37.6 °F /  3.1 °C 33.2 °F /  0.7 °C 30.00in /  1015.8hPa Calm   2.0mph /  3.2km/h 84% 0.00in /  0mm
07:50 37.8 °F /  3.2 °C 33.1 °F /  0.6 °C 30.00in /  1015.8hPa Calm   2.0mph /  3.2km/h 83% 0.00in /  0mm
07:54 38.0 °F /  3.3 °C 33.0 °F /  0.6 °C 30.00in /  1015.8hPa North 3.0mph /  4.8km/h 6.0mph /  9.7km/h 82% 0.00in /  0mm
08:00 38.0 °F /  3.3 °C 32.7 °F /  0.4 °C 30.00in /  1015.8hPa NW 3.0mph /  4.8km/h 6.0mph /  9.7km/h 81% 0.00in /  0mm
08:05 38.1 °F /  3.4 °C 32.5 °F /  0.3 °C 30.01in /  1016.1hPa Calm   6.0mph /  9.7km/h 80% 0.00in /  0mm
08:10 38.3 °F /  3.5 °C 33.0 °F /  0.6 °C 30.01in /  1016.1hPa NNE 1.0mph /  1.6km/h 6.0mph /  9.7km/h 81% 0.00in /  0mm
08:15 38.5 °F /  3.6 °C 33.2 °F /  0.7 °C 30.01in /  1016.1hPa NW 1.0mph /  1.6km/h 4.0mph /  6.4km/h 81% 0.00in /  0mm
08:20 38.5 °F /  3.6 °C 32.6 °F /  0.3 °C 30.01in /  1016.1hPa North 2.0mph /  3.2km/h 6.0mph /  9.7km/h 79% 0.00in /  0mm
08:25 38.5 °F /  3.6 °C 32.2 °F /  0.1 °C 30.01in /  1016.1hPa North 1.0mph /  1.6km/h 6.0mph /  9.7km/h 78% 0.00in /  0mm
08:30 38.7 °F /  3.7 °C 33.1 °F /  0.6 °C 30.01in /  1016.1hPa Calm   4.0mph /  6.4km/h 80% 0.00in /  0mm
08:35 38.9 °F /  3.8 °C 32.9 °F /  0.5 °C 30.01in /  1016.1hPa NW 1.0mph /  1.6km/h 6.0mph /  9.7km/h 79% 0.00in /  0mm
08:40 39.1 °F /  3.9 °C 32.8 °F /  0.4 °C 30.01in /  1016.1hPa NNE 2.0mph /  3.2km/h 7.0mph /  11.3km/h 78% 0.00in /  0mm
08:45 39.3 °F /  4.1 °C 33.0 °F /  0.6 °C 30.02in /  1016.5hPa North 1.0mph /  1.6km/h 7.0mph /  11.3km/h 78% 0.00in /  0mm
08:50 39.4 °F /  4.1 °C 33.1 °F /  0.6 °C 30.02in /  1016.5hPa NW 1.0mph /  1.6km/h 8.0mph /  12.9km/h 78% 0.00in /  0mm
08:55 39.6 °F /  4.2 °C 33.3 °F /  0.7 °C 30.02in /  1016.5hPa NW 1.0mph /  1.6km/h 8.0mph /  12.9km/h 78% 0.00in /  0mm
09:05 40.0 °F /  4.4 °C 33.7 °F /  0.9 °C 30.02in /  1016.5hPa NW 4.0mph /  6.4km/h 6.0mph /  9.7km/h 78% 0.00in /  0mm
09:15 39.7 °F /  4.3 °C 33.4 °F /  0.8 °C 30.02in /  1016.5hPa NW 4.0mph /  6.4km/h 7.0mph /  11.3km/h 78% 0.00in /  0mm
09:20 39.9 °F /  4.4 °C 33.6 °F /  0.9 °C 30.02in /  1016.5hPa NNW 3.0mph /  4.8km/h 7.0mph /  11.3km/h 78% 0.00in /  0mm
09:25 40.0 °F /  4.4 °C 33.4 °F /  0.8 °C 30.03in /  1016.8hPa NW 3.0mph /  4.8km/h 7.0mph /  11.3km/h 77% 0.00in /  0mm
09:29 40.0 °F /  4.4 °C 33.1 °F /  0.6 °C 30.03in /  1016.8hPa NW 3.0mph /  4.8km/h 8.0mph /  12.9km/h 76% 0.00in /  0mm
09:35 40.0 °F /  4.4 °C 33.4 °F /  0.8 °C 30.03in /  1016.8hPa Calm   8.0mph /  12.9km/h 77% 0.00in /  0mm
09:45 40.0 °F /  4.4 °C 32.7 °F /  0.4 °C 30.03in /  1016.8hPa NW 3.0mph /  4.8km/h 7.0mph /  11.3km/h 75% 0.00in /  0mm
09:50 40.4 °F /  4.7 °C 33.4 °F /  0.8 °C 30.03in /  1016.8hPa NW 2.0mph /  3.2km/h 7.0mph /  11.3km/h 76% 0.00in /  0mm
09:54 40.8 °F /  4.9 °C 33.5 °F /  0.8 °C 30.03in /  1016.8hPa NW 5.0mph /  8km/h 8.0mph /  12.9km/h 75% 0.00in /  0mm
09:59 41.3 °F /  5.2 °C 34.0 °F /  1.1 °C 30.03in /  1016.8hPa NNW 4.0mph /  6.4km/h 8.0mph /  12.9km/h 75% 0.00in /  0mm
10:05 41.9 °F /  5.5 °C 33.9 °F /  1.1 °C 30.04in /  1017.2hPa NNW 3.0mph /  4.8km/h 9.0mph /  14.5km/h 73% 0.00in /  0mm
10:10 42.0 °F /  5.6 °C 33.6 °F /  0.9 °C 30.04in /  1017.2hPa WNW 4.0mph /  6.4km/h 9.0mph /  14.5km/h 72% 0.00in /  0mm
10:15 42.6 °F /  5.9 °C 34.6 °F /  1.4 °C 30.04in /  1017.2hPa NNW 2.0mph /  3.2km/h 8.0mph /  12.9km/h 73% 0.00in /  0mm
10:20 42.9 °F /  6.1 °C 33.8 °F /  1 °C 30.04in /  1017.2hPa NW 2.0mph /  3.2km/h 8.0mph /  12.9km/h 70% 0.00in /  0mm
10:25 43.4 °F /  6.3 °C 34.3 °F /  1.3 °C 30.04in /  1017.2hPa NNW 5.0mph /  8km/h 8.0mph /  12.9km/h 70% 0.00in /  0mm
10:29 43.6 °F /  6.4 °C 34.1 °F /  1.2 °C 30.04in /  1017.2hPa NW 5.0mph /  8km/h 10.0mph /  16.1km/h 69% 0.00in /  0mm
10:35 44.1 °F /  6.7 °C 34.9 °F /  1.6 °C 30.04in /  1017.2hPa NW 5.0mph /  8km/h 10.0mph /  16.1km/h 70% 0.00in /  0mm
10:40 44.4 °F /  6.9 °C 35.2 °F /  1.8 °C 30.04in /  1017.2hPa Calm   10.0mph /  16.1km/h 70% 0.00in /  0mm
10:44 45.0 °F /  7.2 °C 34.7 °F /  1.5 °C 30.04in /  1017.2hPa NNW 3.0mph /  4.8km/h 9.0mph /  14.5km/h 67% 0.00in /  0mm
10:50 44.9 °F /  7.2 °C 35.7 °F /  2.1 °C 30.04in /  1017.2hPa WNW 3.0mph /  4.8km/h 10.0mph /  16.1km/h 70% 0.00in /  0mm
10:55 45.7 °F /  7.6 °C 35.4 °F /  1.9 °C 30.04in /  1017.2hPa North 2.0mph /  3.2km/h 10.0mph /  16.1km/h 67% 0.00in /  0mm
11:05 45.4 °F /  7.4 °C 35.1 °F /  1.7 °C 30.03in /  1016.8hPa NW 4.0mph /  6.4km/h 8.0mph /  12.9km/h 67% 0.00in /  0mm
11:10 45.2 °F /  7.3 °C 34.1 °F /  1.2 °C 30.04in /  1017.2hPa NW 7.0mph /  11.3km/h 12.0mph /  19.3km/h 65% 0.00in /  0mm
11:15 45.1 °F /  7.3 °C 34.8 °F /  1.6 °C 30.04in /  1017.2hPa NW 4.0mph /  6.4km/h 13.0mph /  20.9km/h 67% 0.00in /  0mm
11:19 45.4 °F /  7.4 °C 34.3 °F /  1.3 °C 30.04in /  1017.2hPa NW 6.0mph /  9.7km/h 13.0mph /  20.9km/h 65% 0.00in /  0mm
11:25 45.6 °F /  7.6 °C 34.5 °F /  1.4 °C 30.03in /  1016.8hPa NW 6.0mph /  9.7km/h 11.0mph /  17.7km/h 65% 0.00in /  0mm
11:30 46.1 °F /  7.8 °C 36.1 °F /  2.3 °C 30.03in /  1016.8hPa NW 3.0mph /  4.8km/h 11.0mph /  17.7km/h 68% 0.00in /  0mm
11:35 47.0 °F /  8.3 °C 35.5 °F /  1.9 °C 30.03in /  1016.8hPa NNW 4.0mph /  6.4km/h 9.0mph /  14.5km/h 64% 0.00in /  0mm
11:45 46.5 °F /  8.1 °C 34.6 °F /  1.4 °C 30.03in /  1016.8hPa NNW 5.0mph /  8km/h 13.0mph /  20.9km/h 63% 0.00in /  0mm
11:49 46.9 °F /  8.3 °C 35.4 °F /  1.9 °C 30.03in /  1016.8hPa NW 5.0mph /  8km/h 13.0mph /  20.9km/h 64% 0.00in /  0mm
11:54 47.5 °F /  8.6 °C 35.1 °F /  1.7 °C 30.03in /  1016.8hPa NW 4.0mph /  6.4km/h 12.0mph /  19.3km/h 62% 0.00in /  0mm
12:00 47.8 °F /  8.8 °C 35.4 °F /  1.9 °C 30.03in /  1016.8hPa NNW 4.0mph /  6.4km/h 12.0mph /  19.3km/h 62% 0.00in /  0mm
12:05 48.3 °F /  9.1 °C 35.1 °F /  1.7 °C 30.03in /  1016.8hPa NNE 4.0mph /  6.4km/h 12.0mph /  19.3km/h 60% 0.00in /  0mm
12:15 49.2 °F /  9.6 °C 35.9 °F /  2.2 °C 30.03in /  1016.8hPa North 2.0mph /  3.2km/h 9.0mph /  14.5km/h 60% 0.00in /  0mm
12:24 48.9 °F /  9.4 °C 36.0 °F /  2.2 °C 30.02in /  1016.5hPa NNW 2.0mph /  3.2km/h 11.0mph /  17.7km/h 61% 0.00in /  0mm
12:30 48.6 °F /  9.2 °C 34.9 °F /  1.6 °C 30.02in /  1016.5hPa NW 5.0mph /  8km/h 11.0mph /  17.7km/h 59% 0.00in /  0mm
12:35 48.9 °F /  9.4 °C 36.0 °F /  2.2 °C 30.02in /  1016.5hPa NNW 5.0mph /  8km/h 12.0mph /  19.3km/h 61% 0.00in /  0mm
12:40 49.6 °F /  9.8 °C 35.0 °F /  1.7 °C 30.02in /  1016.5hPa NNW 2.0mph /  3.2km/h 12.0mph /  19.3km/h 57% 0.00in /  0mm
12:44 50.3 °F /  10.2 °C 37.0 °F /  2.8 °C 30.02in /  1016.5hPa NNW 1.0mph /  1.6km/h 10.0mph /  16.1km/h 60% 0.00in /  0mm
12:50 50.3 °F /  10.2 °C 36.1 °F /  2.3 °C 30.02in /  1016.5hPa NNW 4.0mph /  6.4km/h 12.0mph /  19.3km/h 58% 0.00in /  0mm
13:00 50.5 °F /  10.3 °C 35.4 °F /  1.9 °C 30.02in /  1016.5hPa North 4.0mph /  6.4km/h 10.0mph /  16.1km/h 56% 0.00in /  0mm
13:09 50.5 °F /  10.3 °C 35.8 °F /  2.1 °C 30.02in /  1016.5hPa North 2.0mph /  3.2km/h 11.0mph /  17.7km/h 57% 0.00in /  0mm
13:14 51.0 °F /  10.6 °C 35.9 °F /  2.2 °C 30.02in /  1016.5hPa NNW 6.0mph /  9.7km/h 11.0mph /  17.7km/h 56% 0.00in /  0mm
13:19 50.9 °F /  10.5 °C 34.9 °F /  1.6 °C 30.02in /  1016.5hPa NW 9.0mph /  14.5km/h 14.0mph /  22.5km/h 54% 0.00in /  0mm
13:25 51.2 °F /  10.7 °C 36.0 °F /  2.2 °C 30.02in /  1016.5hPa North 4.0mph /  6.4km/h 14.0mph /  22.5km/h 56% 0.00in /  0mm
13:29 51.5 °F /  10.8 °C 36.8 °F /  2.7 °C 30.02in /  1016.5hPa NNW 6.0mph /  9.7km/h 13.0mph /  20.9km/h 57% 0.00in /  0mm
13:35 51.9 °F /  11.1 °C 36.2 °F /  2.3 °C 30.02in /  1016.5hPa NNW 6.0mph /  9.7km/h 13.0mph /  20.9km/h 55% 0.00in /  0mm
13:44 52.1 °F /  11.2 °C 35.0 °F /  1.7 °C 30.02in /  1016.5hPa North 4.0mph /  6.4km/h 12.0mph /  19.3km/h 52% 0.00in /  0mm
13:49 51.2 °F /  10.7 °C 35.6 °F /  2 °C 30.02in /  1016.5hPa NW 8.0mph /  12.9km/h 17.0mph /  27.4km/h 55% 0.00in /  0mm
13:55 51.0 °F /  10.6 °C 34.5 °F /  1.4 °C 30.02in /  1016.5hPa NW 8.0mph /  12.9km/h 17.0mph /  27.4km/h 53% 0.00in /  0mm
14:05 51.6 °F /  10.9 °C 35.0 °F /  1.7 °C 30.01in /  1016.1hPa NW 11.0mph /  17.7km/h 18.0mph /  29km/h 53% 0.00in /  0mm
14:10 52.2 °F /  11.2 °C 36.1 °F /  2.3 °C 30.01in /  1016.1hPa NNW 6.0mph /  9.7km/h 18.0mph /  29km/h 54% 0.00in /  0mm
14:14 52.4 °F /  11.3 °C 35.3 °F /  1.8 °C 30.01in /  1016.1hPa NNE 4.0mph /  6.4km/h 13.0mph /  20.9km/h 52% 0.00in /  0mm
14:19 52.0 °F /  11.1 °C 35.4 °F /  1.9 °C 30.01in /  1016.1hPa NW 7.0mph /  11.3km/h 15.0mph /  24.1km/h 53% 0.00in /  0mm
14:24 53.1 °F /  11.7 °C 36.9 °F /  2.7 °C 30.01in /  1016.1hPa NNE 3.0mph /  4.8km/h 16.0mph /  25.7km/h 54% 0.00in /  0mm
14:30 54.1 °F /  12.3 °C 36.9 °F /  2.7 °C 30.01in /  1016.1hPa North 4.0mph /  6.4km/h 16.0mph /  25.7km/h 52% 0.00in /  0mm
14:35 54.3 °F /  12.4 °C 36.1 °F /  2.3 °C 30.01in /  1016.1hPa NNW 5.0mph /  8km/h 13.0mph /  20.9km/h 50% 0.00in /  0mm
14:45 54.4 °F /  12.4 °C 36.2 °F /  2.3 °C 30.01in /  1016.1hPa North 4.0mph /  6.4km/h 15.0mph /  24.1km/h 50% 0.00in /  0mm
14:50 53.6 °F /  12 °C 35.4 °F /  1.9 °C 30.01in /  1016.1hPa NNW 4.0mph /  6.4km/h 15.0mph /  24.1km/h 50% 0.00in /  0mm
14:59 52.9 °F /  11.6 °C 35.3 °F /  1.8 °C 30.01in /  1016.1hPa North 5.0mph /  8km/h 15.0mph /  24.1km/h 51% 0.00in /  0mm
15:10 53.5 °F /  11.9 °C 34.3 °F /  1.3 °C 30.01in /  1016.1hPa NW 6.0mph /  9.7km/h 15.0mph /  24.1km/h 48% 0.00in /  0mm
15:15 53.2 °F /  11.8 °C 34.0 °F /  1.1 °C 30.01in /  1016.1hPa North 4.0mph /  6.4km/h 15.0mph /  24.1km/h 48% 0.00in /  0mm
15:24 51.6 °F /  10.9 °C 32.0 °F /  0 °C 30.01in /  1016.1hPa North 1.0mph /  1.6km/h 14.0mph /  22.5km/h 47% 0.00in /  0mm
15:30 51.0 °F /  10.6 °C 32.5 °F /  0.3 °C 30.01in /  1016.1hPa North 4.0mph /  6.4km/h 9.0mph /  14.5km/h 49% 0.00in /  0mm
15:35 50.6 °F /  10.3 °C 32.1 °F /  0.1 °C 30.01in /  1016.1hPa North 4.0mph /  6.4km/h 9.0mph /  14.5km/h 49% 0.00in /  0mm
15:44 50.9 °F /  10.5 °C 32.9 °F /  0.5 °C 30.00in /  1015.8hPa NNW 2.0mph /  3.2km/h 13.0mph /  20.9km/h 50% 0.00in /  0mm
15:50 51.0 °F /  10.6 °C 33.5 °F /  0.8 °C 30.00in /  1015.8hPa NNE 3.0mph /  4.8km/h 13.0mph /  20.9km/h 51% 0.00in /  0mm
15:59 50.3 °F /  10.2 °C 32.4 °F /  0.2 °C 30.00in /  1015.8hPa NNW 3.0mph /  4.8km/h 11.0mph /  17.7km/h 50% 0.00in /  0mm
16:04 50.1 °F /  10.1 °C 32.7 °F /  0.4 °C 30.01in /  1016.1hPa NNW 1.0mph /  1.6km/h 11.0mph /  17.7km/h 51% 0.00in /  0mm
16:09 49.6 °F /  9.8 °C 32.7 °F /  0.4 °C 30.01in /  1016.1hPa NE 4.0mph /  6.4km/h 12.0mph /  19.3km/h 52% 0.00in /  0mm
16:15 49.2 °F /  9.6 °C 33.3 °F /  0.7 °C 30.01in /  1016.1hPa NNE 2.0mph /  3.2km/h 12.0mph /  19.3km/h 54% 0.00in /  0mm
16:20 48.6 °F /  9.2 °C 32.7 °F /  0.4 °C 30.01in /  1016.1hPa NNE 2.0mph /  3.2km/h 11.0mph /  17.7km/h 54% 0.00in /  0mm
16:30 47.9 °F /  8.8 °C 31.6 °F /  -0.2 °C 30.01in /  1016.1hPa NNE 1.0mph /  1.6km/h 9.0mph /  14.5km/h 53% 0.00in /  0mm
16:35 48.0 °F /  8.9 °C 31.7 °F /  -0.2 °C 30.01in /  1016.1hPa North 1.0mph /  1.6km/h 10.0mph /  16.1km/h 53% 0.00in /  0mm
16:40 48.3 °F /  9.1 °C 32.0 °F /  0 °C 30.01in /  1016.1hPa Calm   10.0mph /  16.1km/h 53% 0.00in /  0mm
16:45 48.7 °F /  9.3 °C 31.4 °F /  -0.3 °C 30.01in /  1016.1hPa Calm   7.0mph /  11.3km/h 51% 0.00in /  0mm
16:54 48.7 °F /  9.3 °C 31.9 °F /  -0.1 °C 30.02in /  1016.5hPa North 1.0mph /  1.6km/h 12.0mph /  19.3km/h 52% 0.00in /  0mm
17:00 48.3 °F /  9.1 °C 32.9 °F /  0.5 °C 30.02in /  1016.5hPa NE 3.0mph /  4.8km/h 12.0mph /  19.3km/h 55% 0.00in /  0mm
17:09 47.3 °F /  8.5 °C 34.1 °F /  1.2 °C 30.02in /  1016.5hPa Calm   10.0mph /  16.1km/h 60% 0.00in /  0mm
17:15 47.0 °F /  8.3 °C 34.3 °F /  1.3 °C 30.02in /  1016.5hPa Calm   4.0mph /  6.4km/h 61% 0.00in /  0mm
17:19 46.8 °F /  8.2 °C 34.1 °F /  1.2 °C 30.02in /  1016.5hPa Calm   4.0mph /  6.4km/h 61% 0.00in /  0mm
17:24 46.7 °F /  8.2 °C 34.0 °F /  1.1 °C 30.02in /  1016.5hPa Calm   3.0mph /  4.8km/h 61% 0.00in /  0mm
17:30 46.7 °F /  8.2 °C 33.6 °F /  0.9 °C 30.02in /  1016.5hPa Calm   3.0mph /  4.8km/h 60% 0.00in /  0mm
17:39 46.6 °F /  8.1 °C 33.9 °F /  1.1 °C 30.02in /  1016.5hPa Calm   8.0mph /  12.9km/h 61% 0.00in /  0mm
17:45 46.5 °F /  8.1 °C 33.4 °F /  0.8 °C 30.02in /  1016.5hPa NE 2.0mph /  3.2km/h 9.0mph /  14.5km/h 60% 0.00in /  0mm
17:55 46.3 °F /  7.9 °C 34.0 °F /  1.1 °C 30.03in /  1016.8hPa Calm   7.0mph /  11.3km/h 62% 0.00in /  0mm
17:59 46.4 °F /  8 °C 34.5 °F /  1.4 °C 30.03in /  1016.8hPa Calm   4.0mph /  6.4km/h 63% 0.00in /  0mm
18:05 46.3 °F /  7.9 °C 33.6 °F /  0.9 °C 30.03in /  1016.8hPa Calm     61% 0.00in /  0mm
18:09 46.1 °F /  7.8 °C 33.8 °F /  1 °C 30.03in /  1016.8hPa Calm     62% 0.00in /  0mm
18:14 46.0 °F /  7.8 °C 33.7 °F /  0.9 °C 30.03in /  1016.8hPa Calm     62% 0.00in /  0mm
18:19 46.0 °F /  7.8 °C 33.7 °F /  0.9 °C 30.03in /  1016.8hPa Calm   4.0mph /  6.4km/h 62% 0.00in /  0mm
18:24 46.3 °F /  7.9 °C 34.0 °F /  1.1 °C 30.03in /  1016.8hPa Calm   4.0mph /  6.4km/h 62% 0.00in /  0mm
18:29 47.0 °F /  8.3 °C 34.3 °F /  1.3 °C 30.03in /  1016.8hPa Calm   3.0mph /  4.8km/h 61% 0.00in /  0mm
18:34 47.5 °F /  8.6 °C 33.5 °F /  0.8 °C 30.03in /  1016.8hPa ENE 1.0mph /  1.6km/h 3.0mph /  4.8km/h 58% 0.00in /  0mm
18:40 47.9 °F /  8.8 °C 33.8 °F /  1 °C 30.03in /  1016.8hPa Calm   3.0mph /  4.8km/h 58% 0.00in /  0mm
18:44 48.2 °F /  9 °C 33.7 °F /  0.9 °C 30.03in /  1016.8hPa Calm   3.0mph /  4.8km/h 57% 0.00in /  0mm
18:49 48.2 °F /  9 °C 33.7 °F /  0.9 °C 30.03in /  1016.8hPa Calm   1.0mph /  1.6km/h 57% 0.00in /  0mm
18:54 47.9 °F /  8.8 °C 34.3 °F /  1.3 °C 30.03in /  1016.8hPa Calm   1.0mph /  1.6km/h 59% 0.00in /  0mm
18:59 47.7 °F /  8.7 °C 34.1 °F /  1.2 °C 30.03in /  1016.8hPa Calm     59% 0.00in /  0mm
19:04 47.6 °F /  8.7 °C 34.0 °F /  1.1 °C 30.03in /  1016.8hPa NNE 5.0mph /  8km/h 11.0mph /  17.7km/h 59% 0.00in /  0mm
19:09 47.1 °F /  8.4 °C 34.8 °F /  1.6 °C 30.04in /  1017.2hPa NNE 3.0mph /  4.8km/h 11.0mph /  17.7km/h 62% 0.00in /  0mm
19:14 46.2 °F /  7.9 °C 34.7 °F /  1.5 °C 30.03in /  1016.8hPa WNW 1.0mph /  1.6km/h 9.0mph /  14.5km/h 64% 0.01in /  0.3mm
19:19 45.6 °F /  7.6 °C 33.3 °F /  0.7 °C 30.03in /  1016.8hPa Calm   5.0mph /  8km/h 62% 0.01in /  0.3mm
19:25 45.1 °F /  7.3 °C 34.0 °F /  1.1 °C 30.03in /  1016.8hPa Calm   5.0mph /  8km/h 65% 0.01in /  0.3mm
19:30 44.3 °F /  6.8 °C 35.5 °F /  1.9 °C 30.03in /  1016.8hPa Calm   1.0mph /  1.6km/h 71% 0.01in /  0.3mm
19:35 43.6 °F /  6.4 °C 34.8 °F /  1.6 °C 30.03in /  1016.8hPa Calm     71% 0.01in /  0.3mm
19:45 42.1 °F /  5.6 °C 34.1 °F /  1.2 °C 30.04in /  1017.2hPa Calm     73% 0.01in /  0.3mm
19:54 41.1 °F /  5.1 °C 33.1 °F /  0.6 °C 30.04in /  1017.2hPa Calm   2.0mph /  3.2km/h 73% 0.01in /  0.3mm
19:59 40.9 °F /  4.9 °C 32.9 °F /  0.5 °C 30.04in /  1017.2hPa Calm   2.0mph /  3.2km/h 73% 0.01in /  0.3mm
20:04 40.5 °F /  4.7 °C 32.9 °F /  0.5 °C 30.04in /  1017.2hPa Calm     74% 0.01in /  0.3mm
20:10 40.1 °F /  4.5 °C 32.8 °F /  0.4 °C 30.04in /  1017.2hPa Calm     75% 0.01in /  0.3mm
20:14 39.9 °F /  4.4 °C 32.6 °F /  0.3 °C 30.04in /  1017.2hPa Calm     75% 0.01in /  0.3mm
20:19 39.8 °F /  4.3 °C 32.2 °F /  0.1 °C 30.05in /  1017.5hPa Calm     74% 0.01in /  0.3mm
20:25 38.9 °F /  3.8 °C 31.3 °F /  -0.4 °C 30.05in /  1017.5hPa Calm     74% 0.01in /  0.3mm
20:30 38.4 °F /  3.6 °C 30.8 °F /  -0.7 °C 30.05in /  1017.5hPa Calm     74% 0.01in /  0.3mm
20:34 38.0 °F /  3.3 °C 30.8 °F /  -0.7 °C 30.05in /  1017.5hPa Calm     75% 0.01in /  0.3mm
20:39 37.7 °F /  3.2 °C 30.5 °F /  -0.8 °C 30.05in /  1017.5hPa Calm     75% 0.01in /  0.3mm
20:45 37.5 °F /  3.1 °C 30.6 °F /  -0.8 °C 30.05in /  1017.5hPa Calm     76% 0.01in /  0.3mm
20:49 37.2 °F /  2.9 °C 30.3 °F /  -0.9 °C 30.05in /  1017.5hPa Calm     76% 0.01in /  0.3mm
20:54 37.4 °F /  3 °C 30.5 °F /  -0.8 °C 30.05in /  1017.5hPa Calm     76% 0.01in /  0.3mm
20:59 37.6 °F /  3.1 °C 30.7 °F /  -0.7 °C 30.05in /  1017.5hPa Calm     76% 0.01in /  0.3mm
21:05 37.7 °F /  3.2 °C 30.8 °F /  -0.7 °C 30.05in /  1017.5hPa Calm     76% 0.01in /  0.3mm
21:14 38.0 °F /  3.3 °C 31.4 °F /  -0.3 °C 30.05in /  1017.5hPa Calm     77% 0.01in /  0.3mm
21:20 37.7 °F /  3.2 °C 30.8 °F /  -0.7 °C 30.06in /  1017.8hPa Calm     76% 0.01in /  0.3mm
21:24 37.8 °F /  3.2 °C 31.2 °F /  -0.4 °C 30.06in /  1017.8hPa Calm     77% 0.01in /  0.3mm
21:29 37.9 °F /  3.3 °C 31.7 °F /  -0.2 °C 30.06in /  1017.8hPa Calm     78% 0.01in /  0.3mm
21:35 38.2 °F /  3.4 °C 32.3 °F /  0.2 °C 30.06in /  1017.8hPa Calm     79% 0.01in /  0.3mm
21:45 38.3 °F /  3.5 °C 32.7 °F /  0.4 °C 30.06in /  1017.8hPa Calm     80% 0.01in /  0.3mm
21:50 38.2 °F /  3.4 °C 32.3 °F /  0.2 °C 30.06in /  1017.8hPa Calm     79% 0.01in /  0.3mm
21:54 38.0 °F /  3.3 °C 32.1 °F /  0.1 °C 30.06in /  1017.8hPa Calm     79% 0.01in /  0.3mm
21:59 37.9 °F /  3.3 °C 32.3 °F /  0.2 °C 30.06in /  1017.8hPa Calm     80% 0.01in /  0.3mm
22:04 38.3 °F /  3.5 °C 32.0 °F /  0 °C 30.06in /  1017.8hPa Calm     78% 0.01in /  0.3mm
22:09 38.3 °F /  3.5 °C 31.7 °F /  -0.2 °C 30.06in /  1017.8hPa Calm     77% 0.01in /  0.3mm
22:14 38.4 °F /  3.6 °C 31.5 °F /  -0.3 °C 30.06in /  1017.8hPa Calm     76% 0.01in /  0.3mm
22:20 38.5 °F /  3.6 °C 31.3 °F /  -0.4 °C 30.06in /  1017.8hPa Calm     75% 0.01in /  0.3mm
22:24 38.3 °F /  3.5 °C 31.4 °F /  -0.3 °C 30.06in /  1017.8hPa Calm     76% 0.01in /  0.3mm
22:29 38.2 °F /  3.4 °C 31.3 °F /  -0.4 °C 30.06in /  1017.8hPa Calm     76% 0.01in /  0.3mm
22:35 38.3 °F /  3.5 °C 31.4 °F /  -0.3 °C 30.06in /  1017.8hPa Calm     76% 0.01in /  0.3mm
22:39 38.1 °F /  3.4 °C 30.9 °F /  -0.6 °C 30.06in /  1017.8hPa Calm     75% 0.01in /  0.3mm
22:45 37.9 °F /  3.3 °C 30.7 °F /  -0.7 °C 30.06in /  1017.8hPa Calm     75% 0.01in /  0.3mm
22:54 38.3 °F /  3.5 °C 31.1 °F /  -0.5 °C 30.06in /  1017.8hPa Calm     75% 0.01in /  0.3mm
22:59 38.2 °F /  3.4 °C 30.6 °F /  -0.8 °C 30.06in /  1017.8hPa Calm     74% 0.01in /  0.3mm
23:04 38.3 °F /  3.5 °C 30.4 °F /  -0.9 °C 30.06in /  1017.8hPa Calm     73% 0.01in /  0.3mm
23:10 38.3 °F /  3.5 °C 31.1 °F /  -0.5 °C 30.07in /  1018.2hPa Calm     75% 0.01in /  0.3mm
23:14 37.9 °F /  3.3 °C 31.0 °F /  -0.6 °C 30.07in /  1018.2hPa Calm     76% 0.01in /  0.3mm
23:20 37.5 °F /  3.1 °C 31.0 °F /  -0.6 °C 30.07in /  1018.2hPa Calm     77% 0.01in /  0.3mm
23:24 37.8 °F /  3.2 °C 31.9 °F /  -0.1 °C 30.07in /  1018.2hPa Calm     79% 0.01in /  0.3mm
23:29 38.2 °F /  3.4 °C 32.3 °F /  0.2 °C 30.07in /  1018.2hPa Calm     79% 0.01in /  0.3mm
23:35 38.1 °F /  3.4 °C 32.2 °F /  0.1 °C 30.07in /  1018.2hPa Calm     79% 0.01in /  0.3mm
23:40 37.9 °F /  3.3 °C 31.7 °F /  -0.2 °C 30.07in /  1018.2hPa Calm     78% 0.01in /  0.3mm
23:49 37.8 °F /  3.2 °C 31.2 °F /  -0.4 °C 30.07in /  1018.2hPa Calm     77% 0.01in /  0.3mm
23:54 38.3 °F /  3.5 °C 31.1 °F /  -0.5 °C 30.07in /  1018.2hPa Calm     75% 0.01in /  0.3mm
23:59 38.6 °F /  3.7 °C 31.0 °F /  -0.6 °C 30.07in /  1018.2hPa Calm     74% 0.01in /  0.3mm
Westford Weather
Compliments of Weather Underground

 
 
Current Radar Loop:

Copyright © WestfordWeather.net 2007-2014. All rights reserved.